Time,TemperatureF,DewpointF,PressureIn,WindDirection,WindDirectionDegrees,WindSpeedMPH,WindSpeedGustMPH,Humidity,HourlyPrecipIn,Conditions,Clouds,dailyrainin,SoftwareType,DateUTC
2013-10-18 00:42:00,68.0,32.0,29.93,SW,235,0.0,-999.0,26,-99.99,,,-99.99,,2013-10-18 07:42:00,
2013-10-18 00:52:00,67.0,30.0,29.93,SW,235,0.0,-999.0,25,-99.99,,,-99.99,,2013-10-18 07:52:00,
2013-10-18 10:22:00,70.0,43.0,30.01,WSW,239,0.0,-999.0,38,-99.99,,,-99.99,,2013-10-18 17:22:00,
2013-10-18 10:42:00,69.0,46.0,30.01,WSW,239,0.0,-999.0,43,-99.99,,,-99.99,,2013-10-18 17:42:00,
2013-10-18 11:12:00,70.0,46.0,30.00,WSW,238,0.0,-999.0,43,-99.99,,,-99.99,,2013-10-18 18:12:00,
2013-10-18 11:42:00,69.0,42.0,30.00,WSW,238,1.0,-999.0,38,-99.99,,,-99.99,,2013-10-18 18:42:00,
2013-10-18 11:52:00,70.0,41.0,30.00,WSW,238,2.0,-999.0,35,-99.99,,,-99.99,,2013-10-18 18:52:00,
2013-10-18 12:11:00,71.0,40.0,30.01,WSW,237,2.0,-999.0,32,-99.99,,,-99.99,,2013-10-18 19:11:00,
2013-10-18 12:21:00,72.0,43.0,30.00,WSW,237,2.0,-999.0,35,-99.99,,,-99.99,,2013-10-18 19:21:00,
2013-10-18 12:42:00,71.0,44.0,29.99,SW,236,2.0,-999.0,38,-99.99,,,-99.99,,2013-10-18 19:42:00,
2013-10-18 12:52:00,72.0,36.0,29.99,SW,235,2.0,-999.0,27,-99.99,,,-99.99,,2013-10-18 19:52:00,
2013-10-18 13:11:00,73.0,38.0,29.98,SW,234,2.0,-999.0,28,-99.99,,,-99.99,,2013-10-18 20:11:00,
2013-10-18 13:22:00,73.0,37.0,29.98,SW,231,3.0,-999.0,27,-99.99,,,-99.99,,2013-10-18 20:22:00,
2013-10-18 13:42:00,74.0,38.0,29.98,SW,229,1.0,-999.0,27,-99.99,,,-99.99,,2013-10-18 20:42:00,
2013-10-18 13:52:00,74.0,43.0,29.98,SW,228,2.0,-999.0,33,-99.99,,,-99.99,,2013-10-18 20:52:00,
2013-10-18 14:22:00,74.0,40.0,29.97,SW,225,1.0,-999.0,29,-99.99,,,-99.99,,2013-10-18 21:22:00,
2013-10-18 14:44:00,74.0,39.0,29.97,SW,223,1.0,-999.0,28,-99.99,,,-99.99,,2013-10-18 21:44:00,
2013-10-18 14:54:00,75.0,41.0,29.97,SW,223,2.0,-999.0,30,-99.99,,,-99.99,,2013-10-18 21:54:00,
2013-10-18 15:13:00,75.0,41.0,29.97,SW,223,1.0,-999.0,30,-99.99,,,-99.99,,2013-10-18 22:13:00,
2013-10-18 15:24:00,74.0,47.0,29.97,SW,223,2.0,-999.0,39,-99.99,,,-99.99,,2013-10-18 22:24:00,
2013-10-18 15:43:00,73.0,47.0,29.97,SW,223,1.0,-999.0,39,-99.99,,,-99.99,,2013-10-18 22:43:00,
2013-10-18 16:12:00,72.0,46.0,29.96,SW,223,1.0,-999.0,40,-99.99,,,-99.99,,2013-10-18 23:12:00,
2013-10-18 16:23:00,73.0,44.0,29.96,SW,223,1.0,-999.0,36,-99.99,,,-99.99,,2013-10-18 23:23:00,
2013-10-18 16:53:00,72.0,43.0,29.96,SW,223,3.0,-999.0,35,-99.99,,,-99.99,,2013-10-18 23:53:00,
2013-10-18 17:11:00,72.0,48.0,29.96,SW,222,1.0,-999.0,42,-99.99,,,-99.99,,2013-10-19 00:11:00,
2013-10-18 17:21:00,70.0,48.0,29.96,SW,221,1.0,-999.0,45,-99.99,,,-99.99,,2013-10-19 00:21:00,
2013-10-18 17:42:00,72.0,46.0,29.96,SW,221,1.0,-999.0,40,-99.99,,,-99.99,,2013-10-19 00:42:00,
2013-10-18 17:52:00,70.0,50.0,29.95,SW,221,0.0,-999.0,50,-99.99,,,-99.99,,2013-10-19 00:52:00,
2013-10-18 18:11:00,71.0,45.0,29.96,SW,221,1.0,-999.0,40,-99.99,,,-99.99,,2013-10-19 01:11:00,
2013-10-18 18:42:00,68.0,50.0,29.96,SW,221,0.0,-999.0,53,-99.99,,,-99.99,,2013-10-19 01:42:00,
2013-10-18 18:53:00,68.0,43.0,29.96,SW,221,0.0,-999.0,40,-99.99,,,-99.99,,2013-10-19 01:53:00,
2013-10-18 19:11:00,68.0,41.0,29.96,SW,221,0.0,-999.0,37,-99.99,,,-99.99,,2013-10-19 02:11:00,
2013-10-18 19:21:00,68.0,39.0,29.96,SW,221,0.0,-999.0,35,-99.99,,,-99.99,,2013-10-19 02:21:00,
2013-10-18 19:42:00,68.0,36.0,29.96,SW,221,0.0,-999.0,31,-99.99,,,-99.99,,2013-10-19 02:42:00,